Time;durP1;ratioP1;P1;durP2;ratioP2;P2;SDS_P1;SDS_P2;PMS_P1;PMS_P2;Temp;Humidity;BMP_temperature;BMP_pressure;BME280_temperature;BME280_humidity;BME280_pressure;Samples;Min_cycle;Max_cycle;Signal;HPM_P1;HPM_P2
2023/04/05 00:02:12;;;;;;;6.03;3.20;;;;;;;-3.90;65.90;98290.22;6109130;28;20234;-89
2023/04/05 00:05:28;;;;;;;3.80;3.20;;;;;;;-5.89;66.00;97999.28;6114383;28;20737;-89
2023/04/05 00:08:30;;;;;;;7.17;3.40;;;;;;;-4.52;66.76;98213.31;6098494;28;20227;-88
2023/04/05 00:11:33;;;;;;;3.73;3.00;;;;;;;-5.55;66.96;98078.47;6108388;28;20244;-88
2023/04/05 00:14:35;;;;;;;6.07;3.63;;;;;;;-4.64;67.28;98224.78;6113518;28;20226;-88
2023/04/05 00:17:36;;;;;;;6.47;3.73;;;;;;;-4.23;67.81;98280.19;6119026;28;20226;-88
2023/04/05 00:20:38;;;;;;;5.03;3.83;;;;;;;-4.65;67.28;98210.13;6116584;28;20230;-87
2023/04/05 00:23:43;;;;;;;7.63;3.50;;;;;;;-5.02;67.77;98152.75;6115483;28;20234;-88
2023/04/05 00:26:46;;;;;;;5.73;3.50;;;;;;;-4.64;66.65;98216.16;6103453;28;20249;-88
2023/04/05 00:29:47;;;;;;;5.37;3.80;;;;;;;-5.54;67.68;98074.09;6120989;28;20222;-88
2023/04/05 00:32:50;;;;;;;7.07;3.60;;;;;;;-4.71;67.71;98218.47;6120078;28;20242;-88
2023/04/05 00:35:52;;;;;;;4.30;3.13;;;;;;;-4.72;67.08;98209.03;6103039;28;20239;-88
2023/04/05 00:38:54;;;;;;;6.13;3.30;;;;;;;-4.57;67.43;98233.69;6109997;28;20235;-88
2023/04/05 00:41:56;;;;;;;6.13;3.43;;;;;;;-4.97;67.76;98181.75;6117951;28;20607;-88
2023/04/05 00:44:59;;;;;;;8.93;3.73;;;;;;;-4.78;67.89;98197.41;6117368;28;20660;-88
2023/04/05 00:48:02;;;;;;;7.43;3.40;;;;;;;-5.14;67.44;98164.16;6118164;28;20699;-89
2023/04/05 00:51:08;;;;;;;6.37;3.50;;;;;;;-5.64;68.21;98081.84;6132693;28;20233;-89
2023/04/05 00:54:10;;;;;;;10.33;3.97;;;;;;;-6.46;67.34;97970.34;6138942;28;20282;-88
2023/04/05 00:57:13;;;;;;;5.77;3.43;;;;;;;-5.20;68.00;98174.13;6133178;28;20785;-89
2023/04/05 01:00:16;;;;;;;5.00;3.60;;;;;;;-5.36;68.89;98147.00;6158001;28;20282;-88
2023/04/05 01:03:25;;;;;;;6.93;3.43;;;;;;;-4.93;68.35;98225.53;6146666;28;20301;-88
2023/04/05 01:06:39;;;;;;;7.03;3.60;;;;;;;-4.55;68.50;98280.34;6151891;28;20249;-88
2023/04/05 01:09:47;;;;;;;6.60;3.77;;;;;;;-4.51;67.92;98274.75;6132131;28;20609;-88
2023/04/05 01:12:49;;;;;;;5.83;3.73;;;;;;;-6.59;68.17;97957.63;6134592;28;20716;-88
2023/04/05 01:15:51;;;;;;;8.10;3.00;;;;;;;-4.91;68.42;98240.97;6117560;28;20238;-88
2023/04/05 01:18:57;;;;;;;5.37;3.90;;;;;;;-5.30;68.40;98169.84;6131823;28;20233;-88
2023/04/05 01:22:16;;;;;;;5.30;3.70;;;;;;;-4.57;69.01;98272.69;6117838;28;20273;-88
2023/04/05 01:26:04;;;;;;;4.73;3.13;;;;;;;-4.65;68.16;98245.72;6144325;28;20234;-88
2023/04/05 01:29:18;;;;;;;6.17;3.57;;;;;;;-4.44;66.84;98265.47;6120944;28;20780;-88
2023/04/05 01:32:24;;;;;;;5.90;3.57;;;;;;;-5.10;66.28;98143.00;6132238;28;20701;-88
2023/04/05 01:35:51;;;;;;;4.97;3.10;;;;;;;-4.33;66.17;98258.53;6130456;28;20234;-88
2023/04/05 01:38:56;;;;;;;8.20;3.63;;;;;;;-5.45;65.71;98081.09;6111464;28;20227;-88
2023/04/05 01:42:00;;;;;;;5.40;3.40;;;;;;;-4.39;66.51;98254.66;6132281;28;20646;-88
2023/04/05 01:45:02;;;;;;;3.87;3.40;;;;;;;-4.47;66.94;98278.75;6143929;28;20266;-88
2023/04/05 01:48:06;;;;;;;6.37;3.90;;;;;;;-5.23;66.15;98134.59;6131727;28;20586;-88
2023/04/05 01:51:08;;;;;;;5.27;3.40;;;;;;;-6.28;66.44;98023.25;6116227;28;20241;-88
2023/04/05 01:54:10;;;;;;;6.83;4.07;;;;;;;-4.39;66.40;98274.66;6138198;28;20269;-88
2023/04/05 01:57:12;;;;;;;5.63;3.40;;;;;;;-4.71;66.22;98208.91;6115955;28;20687;-88
2023/04/05 02:00:15;;;;;;;6.33;3.20;;;;;;;-4.90;67.14;98210.59;6116440;28;20328;-88
2023/04/05 02:03:17;;;;;;;6.30;3.43;;;;;;;-4.64;66.32;98224.78;6131723;28;20698;-88
2023/04/05 02:06:19;;;;;;;5.30;3.63;;;;;;;-5.14;66.59;98148.59;6116182;28;20214;-88
2023/04/05 02:09:21;;;;;;;6.00;3.60;;;;;;;-4.89;66.53;98191.47;6132172;28;20226;-88
2023/04/05 02:12:23;;;;;;;5.83;3.27;;;;;;;-4.81;66.49;98213.25;6116502;28;20263;-88
2023/04/05 02:15:25;;;;;;;7.10;4.07;;;;;;;-4.87;66.61;98195.59;6140182;28;20598;-89
2023/04/05 02:18:30;;;;;;;8.07;4.70;;;;;;;-5.25;66.85;98141.72;6129718;28;20223;-89
2023/04/05 02:21:34;;;;;;;8.03;3.97;;;;;;;-5.28;66.92;98147.16;6118794;28;20227;-88
2023/04/05 02:24:36;;;;;;;6.77;4.00;;;;;;;-6.52;66.62;97943.19;6115963;28;20236;-88
2023/04/05 02:27:39;;;;;;;6.37;3.47;;;;;;;-5.05;66.44;98158.19;6147319;28;20926;-89
2023/04/05 02:30:41;;;;;;;6.80;3.73;;;;;;;-6.10;66.80;97997.56;6127579;28;20234;-89
2023/04/05 02:33:44;;;;;;;6.27;3.50;;;;;;;-5.67;67.12;98074.31;6115395;28;20242;-88
2023/04/05 02:36:46;;;;;;;6.77;3.83;;;;;;;-5.66;67.54;98075.13;6115093;28;20306;-88
2023/04/05 02:39:48;;;;;;;6.30;3.43;;;;;;;-5.33;67.13;98144.94;6146605;28;20736;-88
2023/04/05 02:42:50;;;;;;;5.47;3.00;;;;;;;-5.29;67.04;98145.53;6130656;28;20747;-88
2023/04/05 02:45:52;;;;;;;6.23;3.43;;;;;;;-4.59;67.13;98235.59;6123253;28;20290;-88
2023/04/05 02:48:54;;;;;;;7.00;3.80;;;;;;;-5.05;67.09;98212.75;6130007;28;20226;-88
2023/04/05 02:52:00;;;;;;;6.93;3.43;;;;;;;-5.94;67.34;98048.16;6130209;28;20238;-88
2023/04/05 02:55:06;;;;;;;6.17;3.40;;;;;;;-5.29;67.06;98137.72;6129648;28;20234;-88
2023/04/05 02:58:09;;;;;;;8.40;4.00;;;;;;;-4.91;66.95;98196.81;6130393;28;20584;-88
2023/04/05 03:01:17;;;;;;;5.67;3.63;;;;;;;-4.60;67.35;98235.75;6131509;28;20230;-88
2023/04/05 03:04:19;;;;;;;7.63;3.67;;;;;;;-5.78;66.77;98064.03;6138776;28;20706;-89
2023/04/05 03:07:24;;;;;;;5.73;3.37;;;;;;;-6.42;66.65;97978.69;6134783;29;20242;-88
2023/04/05 03:10:33;;;;;;;6.73;4.07;;;;;;;-4.86;66.82;98180.81;6131550;28;20273;-89
2023/04/05 03:13:46;;;;;;;7.87;3.57;;;;;;;-5.20;66.56;98142.97;6132118;28;20231;-88
2023/04/05 03:17:14;;;;;;;8.00;3.53;;;;;;;-5.47;66.72;98099.41;6127871;28;20226;-88
2023/04/05 03:20:21;;;;;;;8.30;4.43;;;;;;;-4.60;67.25;98251.34;6113713;28;20238;-88
2023/04/05 03:23:29;;;;;;;6.40;3.70;;;;;;;-4.63;67.13;98230.78;6148983;28;20609;-87
2023/04/05 03:26:32;;;;;;;8.17;3.63;;;;;;;-5.56;67.31;98094.19;6117110;28;20646;-88
2023/04/05 03:29:35;;;;;;;7.40;3.73;;;;;;;-4.69;68.02;98235.56;6139248;28;20229;-89
2023/04/05 03:32:45;;;;;;;6.63;4.03;;;;;;;-6.92;67.86;97888.69;6127679;28;20698;-88
2023/04/05 03:36:12;;;;;;;7.10;3.63;;;;;;;-5.19;67.75;98185.34;6127460;28;20227;-88
2023/04/05 03:39:15;;;;;;;5.73;3.67;;;;;;;-4.68;67.32;98238.97;6130651;28;20223;-88
2023/04/05 03:42:17;;;;;;;10.73;3.87;;;;;;;-4.76;67.20;98223.25;6129841;28;20694;-88
2023/04/05 03:45:19;;;;;;;6.07;3.00;;;;;;;-5.68;66.82;98077.88;6146659;28;20237;-88
2023/04/05 03:48:25;;;;;;;4.73;3.70;;;;;;;-4.73;66.63;98210.81;6131611;28;20218;-88
2023/04/05 03:51:27;;;;;;;5.67;3.43;;;;;;;-4.92;64.61;98153.59;6166005;28;20233;-88
2023/04/05 03:54:29;;;;;;;5.97;3.43;;;;;;;-5.83;65.54;98027.28;6166241;28;20237;-88
2023/04/05 03:57:37;;;;;;;8.37;3.87;;;;;;;-4.85;66.07;98182.47;6142780;28;20329;-88
2023/04/05 04:00:54;;;;;;;7.97;3.73;;;;;;;-5.96;66.64;98019.72;6122122;28;20238;-88
2023/04/05 04:03:59;;;;;;;7.20;3.20;;;;;;;-6.58;66.10;97915.22;6127802;28;20313;-88
2023/04/05 04:07:02;;;;;;;7.53;3.60;;;;;;;-4.73;66.39;98204.78;6118277;28;20309;-88
2023/04/05 04:10:05;;;;;;;5.83;3.90;;;;;;;-6.13;65.75;97989.22;6133537;28;20774;-88
2023/04/05 04:13:07;;;;;;;8.77;3.73;;;;;;;-6.83;66.36;97849.09;6130816;28;20254;-88
2023/04/05 04:16:10;;;;;;;7.57;3.60;;;;;;;-5.79;66.05;98047.66;6133965;28;20648;-88
2023/04/05 04:19:38;;;;;;;5.23;3.33;;;;;;;-5.03;66.29;98144.09;6132612;28;20230;-88
2023/04/05 04:23:00;;;;;;;5.70;3.80;;;;;;;-4.94;66.25;98179.69;6123082;28;20367;-88
2023/04/05 04:26:05;;;;;;;8.13;3.70;;;;;;;-5.15;65.93;98152.16;6134551;28;20277;-88
2023/04/05 04:29:29;;;;;;;5.27;3.83;;;;;;;-4.50;66.64;98239.19;6121151;28;20252;-88
2023/04/05 04:32:51;;;;;;;7.33;3.50;;;;;;;-5.05;66.58;98163.38;6144855;28;20230;-88
2023/04/05 04:36:12;;;;;;;6.40;3.50;;;;;;;-4.63;66.46;98236.84;6131363;28;20226;-88
2023/04/05 04:39:33;;;;;;;5.43;3.27;;;;;;;-6.88;67.01;97892.69;6134010;28;20231;-88
2023/04/05 04:43:00;;;;;;;6.80;3.67;;;;;;;-5.25;67.00;98154.69;6135174;28;20611;-88
2023/04/05 04:46:29;;;;;;;5.80;3.50;;;;;;;-4.81;68.39;98239.22;6132035;28;20250;-88
2023/04/05 04:49:41;;;;;;;4.87;3.20;;;;;;;-4.85;68.42;98235.25;6130419;28;20233;-89
2023/04/05 04:52:43;;;;;;;4.53;3.47;;;;;;;-6.99;68.63;97907.44;6117644;28;20226;-89
2023/04/05 04:55:48;;;;;;;3.97;3.00;;;;;;;-6.21;68.35;98036.53;6125347;28;20609;-88
2023/04/05 04:58:55;;;;;;;10.40;3.77;;;;;;;-5.24;68.79;98192.69;6117216;28;20249;-88
2023/04/05 05:01:57;;;;;;;9.47;3.57;;;;;;;-6.26;68.30;98020.53;6109746;28;20786;-88
2023/04/05 05:04:59;;;;;;;5.20;3.20;;;;;;;-6.74;68.93;97952.88;6118320;28;20722;-88
2023/04/05 05:08:01;;;;;;;5.47;3.43;;;;;;;-4.85;68.52;98265.59;6116253;28;20738;-88
2023/04/05 05:11:06;;;;;;;6.03;3.73;;;;;;;-4.80;68.24;98250.44;6116855;28;20234;-88
2023/04/05 05:14:08;;;;;;;4.83;2.80;;;;;;;-5.17;68.80;98180.84;6114091;28;20782;-88
2023/04/05 05:17:10;;;;;;;4.93;2.83;;;;;;;-5.01;68.02;98198.53;6116854;28;20230;-88
2023/04/05 05:20:12;;;;;;;3.90;2.83;;;;;;;-5.43;68.59;98130.28;6107058;28;20241;-88
2023/04/05 05:23:20;;;;;;;7.33;3.40;;;;;;;-5.34;67.64;98138.13;6115917;28;20588;-88
2023/04/05 05:26:22;;;;;;;5.70;3.10;;;;;;;-5.40;67.90;98111.88;6100541;28;20226;-88
2023/04/05 05:29:24;;;;;;;6.40;3.47;;;;;;;-5.44;67.89;98098.31;6116500;28;20246;-88
2023/04/05 05:32:26;;;;;;;6.37;3.50;;;;;;;-4.39;67.43;98243.44;6128652;28;20273;-89
2023/04/05 05:35:28;;;;;;;7.67;3.10;;;;;;;-4.87;66.65;98172.22;6109414;28;20355;-89
2023/04/05 05:38:30;;;;;;;6.17;2.97;;;;;;;-5.32;65.40;98073.91;6106956;28;20226;-89
2023/04/05 05:41:33;;;;;;;6.57;3.00;;;;;;;-4.07;64.63;98248.44;6131404;28;20233;-88
2023/04/05 05:44:35;;;;;;;4.80;3.33;;;;;;;-4.58;64.48;98153.22;6101672;28;20230;-89
2023/04/05 05:47:37;;;;;;;4.50;2.60;;;;;;;-4.52;63.71;98135.34;6112657;28;20321;-89
2023/04/05 05:50:40;;;;;;;3.93;2.57;;;;;;;-4.16;60.73;98136.44;6116338;28;20234;-89
2023/04/05 05:53:44;;;;;;;4.80;2.80;;;;;;;-5.10;61.11;97953.41;6138480;28;20235;-89
2023/04/05 05:56:46;;;;;;;7.73;2.87;;;;;;;-4.84;61.26;98010.00;6124292;28;20239;-86
2023/04/05 05:59:48;;;;;;;6.60;2.80;;;;;;;-4.02;63.80;98150.81;6118602;29;20760;-90
2023/04/05 06:02:51;;;;;;;5.20;3.00;;;;;;;-3.69;60.97;98166.94;6143860;28;20237;-89
2023/04/05 06:05:58;;;;;;;4.33;2.70;;;;;;;-3.22;62.88;98242.50;6141506;28;20717;-89
2023/04/05 06:09:00;;;;;;;5.37;2.73;;;;;;;-3.77;59.58;98120.75;6129706;28;20230;-89
2023/04/05 06:12:02;;;;;;;4.33;3.03;;;;;;;-3.57;58.86;98100.69;6125160;28;20234;-89
2023/04/05 06:15:05;;;;;;;5.77;3.20;;;;;;;-3.97;60.25;98062.72;6116467;28;20738;-89
2023/04/05 06:18:07;;;;;;;4.13;2.43;;;;;;;-3.37;58.35;98130.91;6130133;28;20233;-89
2023/04/05 06:21:09;;;;;;;4.50;3.47;;;;;;;-2.27;56.30;98223.13;6115201;28;20334;-89
2023/04/05 06:24:11;;;;;;;4.23;2.53;;;;;;;-2.86;55.44;98108.75;6116727;28;20235;-89
2023/04/05 06:27:13;;;;;;;4.13;2.50;;;;;;;-3.33;53.61;97983.00;6122660;28;20224;-88
2023/04/05 06:30:15;;;;;;;4.57;3.03;;;;;;;-2.23;54.91;98156.63;6128418;28;20621;-88
2023/04/05 06:33:17;;;;;;;3.43;2.13;;;;;;;-1.44;53.35;98229.75;6131315;28;20683;-89
2023/04/05 06:36:19;;;;;;;4.13;2.47;;;;;;;-1.41;50.86;98174.59;6152956;28;20242;-88
2023/04/05 06:39:21;;;;;;;5.00;2.40;;;;;;;-1.75;51.48;98134.53;6152047;28;20736;-89
2023/04/05 06:42:24;;;;;;;6.17;2.60;;;;;;;-2.21;51.49;98052.94;6146518;28;20238;-89
2023/04/05 06:45:33;;;;;;;3.63;2.57;;;;;;;-1.48;49.71;98128.31;6131323;28;20231;-88
2023/04/05 06:48:35;;;;;;;5.53;2.67;;;;;;;-1.98;50.79;98058.47;6138534;28;20254;-89
2023/04/05 06:51:37;;;;;;;4.73;2.63;;;;;;;-0.90;50.65;98199.03;6118432;28;20766;-89
2023/04/05 06:54:39;;;;;;;4.63;2.60;;;;;;;-1.18;49.62;98158.38;6131592;28;20223;-89
2023/04/05 06:57:42;;;;;;;4.43;2.63;;;;;;;-1.38;48.85;98085.44;6089228;28;1244759;-89
2023/04/05 07:00:45;;;;;;;4.47;2.60;;;;;;;-0.81;49.80;98176.38;6131581;28;20272;-89
2023/04/05 07:03:47;;;;;;;3.43;2.20;;;;;;;-1.09;49.08;98144.38;6123104;28;20226;-89
2023/04/05 07:06:49;;;;;;;5.70;2.70;;;;;;;-0.69;50.81;98185.59;6115283;28;20247;-89
2023/04/05 07:09:52;;;;;;;6.37;2.80;;;;;;;-2.04;49.27;97952.88;6130560;28;20293;-88
2023/04/05 07:12:54;;;;;;;4.60;2.73;;;;;;;-0.47;48.38;98193.81;6112465;28;20324;-89
2023/04/05 07:16:01;;;;;;;6.43;2.50;;;;;;;0.07;47.33;98242.22;6138336;28;20750;-89
2023/04/05 07:19:05;;;;;;;4.13;2.43;;;;;;;-0.01;48.02;98239.56;6129623;28;20270;-89
2023/04/05 07:22:06;;;;;;;8.20;3.00;;;;;;;-1.24;46.64;98026.50;6121648;28;20249;-89
2023/04/05 07:25:09;;;;;;;3.50;2.53;;;;;;;-0.38;46.43;98183.22;6115283;28;20610;-89
2023/04/05 07:28:11;;;;;;;4.30;2.83;;;;;;;-0.13;47.06;98210.25;6136340;28;20242;-88
2023/04/05 07:31:14;;;;;;;5.07;2.87;;;;;;;-0.57;46.11;98131.16;6131948;28;20394;-89
2023/04/05 07:34:16;;;;;;;5.07;2.50;;;;;;;-0.22;47.24;98186.84;6135596;28;20726;-89
2023/04/05 07:37:18;;;;;;;6.03;2.50;;;;;;;-0.71;47.33;98116.88;6126262;28;20325;-89
2023/04/05 07:40:20;;;;;;;5.03;2.53;;;;;;;-0.65;47.12;98131.13;6135042;28;20233;-88
2023/04/05 07:43:24;;;;;;;4.43;2.57;;;;;;;0.02;46.87;98193.91;6135351;28;20316;-89
2023/04/05 07:46:26;;;;;;;8.50;3.63;;;;;;;-0.28;46.21;98136.78;6126934;28;20269;-89
2023/04/05 07:49:29;;;;;;;7.23;2.90;;;;;;;-0.24;46.38;98180.97;6134684;28;20871;-89
2023/04/05 07:52:31;;;;;;;5.30;2.63;;;;;;;-0.59;47.96;98110.38;6117537;28;20236;-88
2023/04/05 07:55:37;;;;;;;5.10;2.47;;;;;;;-0.64;46.70;98060.34;6149587;28;20722;-89
2023/04/05 07:58:40;;;;;;;4.23;2.77;;;;;;;0.40;48.02;98256.19;6114952;28;20226;-89
2023/04/05 08:01:42;;;;;;;5.43;2.30;;;;;;;0.20;46.52;98191.97;6114525;28;20789;-90
2023/04/05 08:04:45;;;;;;;4.23;2.30;;;;;;;0.25;46.57;98205.41;6127145;28;20713;-89
2023/04/05 08:07:47;;;;;;;6.17;2.70;;;;;;;0.01;47.55;98150.38;6134909;28;20234;-89
2023/04/05 08:10:49;;;;;;;6.30;2.50;;;;;;;0.62;45.67;98181.28;6130755;29;20241;-89
2023/04/05 08:13:53;;;;;;;6.00;2.37;;;;;;;0.71;44.43;98134.91;6117642;28;20281;-88
2023/04/05 08:16:55;;;;;;;3.77;2.40;;;;;;;1.00;44.08;98178.94;6133904;28;20373;-89
2023/04/05 08:19:57;;;;;;;2.43;2.03;;;;;;;0.15;44.98;98003.03;6117069;28;20234;-89
2023/04/05 08:22:59;;;;;;;5.23;3.00;;;;;;;1.65;44.22;98175.19;6125480;28;20321;-90
2023/04/05 08:26:01;;;;;;;4.03;2.43;;;;;;;1.68;42.53;98111.84;6116783;28;20741;-89
2023/04/05 08:29:03;;;;;;;5.47;2.93;;;;;;;2.25;42.52;98216.53;6110455;28;20765;-90
2023/04/05 08:32:05;;;;;;;4.27;2.50;;;;;;;2.26;42.39;98224.22;6114841;28;20226;-89
2023/04/05 08:35:08;;;;;;;2.60;1.90;;;;;;;1.93;41.88;98170.28;6109693;28;20242;-89
2023/04/05 08:38:11;;;;;;;3.33;2.17;;;;;;;1.53;42.23;98072.41;6117018;28;20532;-90
2023/04/05 08:41:17;;;;;;;4.13;2.30;;;;;;;2.02;42.98;98142.94;6102199;28;20791;-90
2023/04/05 08:44:22;;;;;;;4.83;2.70;;;;;;;2.34;41.81;98141.88;6102646;28;20243;-90
2023/04/05 08:47:26;;;;;;;2.80;2.00;;;;;;;2.19;42.80;98109.47;6135222;28;20348;-89
2023/04/05 08:50:28;;;;;;;3.60;2.03;;;;;;;2.85;41.70;98195.44;6101756;28;20238;-89
2023/04/05 08:53:32;;;;;;;3.63;2.63;;;;;;;2.43;41.43;98129.47;6116887;28;20224;-89
2023/04/05 08:56:35;;;;;;;4.20;2.40;;;;;;;3.13;40.41;98191.41;6109026;28;20248;-89
2023/04/05 08:59:41;;;;;;;3.63;2.20;;;;;;;2.31;41.44;98113.28;6133626;28;20270;-90
2023/04/05 09:02:46;;;;;;;4.30;2.70;;;;;;;2.78;41.49;98205.06;6117304;28;20340;-89
2023/04/05 09:05:50;;;;;;;6.40;2.47;;;;;;;2.69;40.99;98165.88;6130626;28;20325;-89
2023/04/05 09:08:58;;;;;;;3.80;2.10;;;;;;;1.63;39.94;97935.63;6116656;28;20244;-90
2023/04/05 09:12:02;;;;;;;3.63;2.27;;;;;;;3.32;39.19;98157.44;6145735;28;20710;-89
2023/04/05 09:15:05;;;;;;;3.43;1.83;;;;;;;3.31;37.55;98141.81;6148249;28;20229;-89
2023/04/05 09:18:07;;;;;;;3.90;1.70;;;;;;;3.94;37.30;98185.09;6133072;28;20224;-89
2023/04/05 09:21:27;;;;;;;3.50;1.87;;;;;;;3.75;36.91;98147.00;6133213;28;20260;-89
2023/04/05 09:24:32;;;;;;;4.90;2.43;;;;;;;3.68;40.08;98164.53;6119171;28;20324;-89
2023/04/05 09:27:34;;;;;;;4.90;2.00;;;;;;;2.96;37.39;98044.22;6133418;28;20606;-88
2023/04/05 09:30:36;;;;;;;6.37;2.73;;;;;;;2.96;38.30;98077.59;6140709;28;20642;-89
2023/04/05 09:33:41;;;;;;;5.27;2.47;;;;;;;3.09;38.81;98075.13;6117612;28;20229;-90
2023/04/05 09:36:44;;;;;;;4.07;2.30;;;;;;;2.55;37.74;97943.94;6124605;28;20264;-90
2023/04/05 09:39:48;;;;;;;4.83;2.27;;;;;;;4.28;36.76;98163.28;6126064;28;20721;-89
2023/04/05 09:42:52;;;;;;;2.73;1.97;;;;;;;3.14;37.16;98016.66;6147386;28;20607;-89
2023/04/05 09:45:54;;;;;;;4.43;1.90;;;;;;;3.87;35.79;98126.22;6132880;28;20234;-89
2023/04/05 09:48:57;;;;;;;2.73;2.00;;;;;;;3.15;36.57;98040.16;6121022;28;20241;-89
2023/04/05 09:51:59;;;;;;;6.33;2.03;;;;;;;3.22;36.15;98059.50;6149082;28;20214;-90
2023/04/05 09:55:03;;;;;;;4.33;1.93;;;;;;;3.74;37.33;98054.94;6173098;28;20262;-90
2023/04/05 09:58:11;;;;;;;5.77;2.07;;;;;;;5.02;35.93;98151.44;6148163;28;20245;-90
2023/04/05 10:01:13;;;;;;;4.93;2.30;;;;;;;4.92;35.36;98157.88;6149581;28;20249;-89
2023/04/05 10:04:18;;;;;;;2.60;1.97;;;;;;;4.45;35.68;98149.84;6131796;28;20718;-88
2023/04/05 10:07:21;;;;;;;4.77;2.30;;;;;;;3.24;36.70;98030.34;6124820;28;20359;-89
2023/04/05 10:10:24;;;;;;;3.37;2.10;;;;;;;2.35;37.50;97900.81;6132682;28;20265;-89
2023/04/05 10:13:28;;;;;;;2.60;1.97;;;;;;;3.63;35.73;98046.53;6116791;28;20727;-89
2023/04/05 10:17:10;;;;;;;3.50;2.07;;;;;;;4.27;35.51;98130.03;6115813;28;20695;-89
2023/04/05 10:20:23;;;;;;;3.73;2.07;;;;;;;3.54;36.14;98089.00;6115352;28;20249;-89
2023/04/05 10:23:30;;;;;;;3.13;1.57;;;;;;;3.33;36.75;98037.13;6129456;28;20233;-89
2023/04/05 10:26:42;;;;;;;4.63;1.80;;;;;;;4.06;35.81;98124.78;6116763;28;20718;-89
2023/04/05 10:30:04;;;;;;;5.67;2.23;;;;;;;4.55;35.71;98119.50;6115892;28;20234;-89
2023/04/05 10:33:28;;;;;;;3.30;2.00;;;;;;;5.00;35.26;98113.88;6130776;28;20226;-90
2023/04/05 10:36:38;;;;;;;5.50;2.50;;;;;;;4.94;36.90;98122.59;6130669;28;20263;-89
2023/04/05 10:39:45;;;;;;;5.57;2.70;;;;;;;4.43;37.56;98123.66;6115603;28;20313;-90
2023/04/05 10:42:48;;;;;;;5.80;2.40;;;;;;;3.82;37.75;98076.72;6130878;28;20545;-91
2023/04/05 10:45:53;;;;;;;8.67;2.80;;;;;;;3.83;38.88;98078.34;6116148;28;20627;-89
2023/04/05 10:49:05;;;;;;;5.83;2.23;;;;;;;3.21;39.28;98020.19;6130944;28;20593;-90
2023/04/05 10:52:08;;;;;;;3.13;2.30;;;;;;;3.33;40.16;98066.91;6127592;28;20238;-89
2023/04/05 10:55:11;;;;;;;4.83;2.43;;;;;;;2.98;39.99;98044.03;6114608;28;20265;-89
2023/04/05 10:58:15;;;;;;;7.80;2.67;;;;;;;3.47;40.24;98078.41;6143072;28;20246;-89
2023/04/05 11:01:20;;;;;;;3.97;2.53;;;;;;;3.42;39.36;98067.59;6130157;28;20844;-90
2023/04/05 11:04:22;;;;;;;5.37;2.57;;;;;;;3.03;38.99;98028.50;6114228;28;20601;-89
2023/04/05 11:07:24;;;;;;;6.93;2.50;;;;;;;3.13;41.48;98026.38;6146159;28;20233;-89
2023/04/05 11:10:28;;;;;;;3.80;2.40;;;;;;;3.72;41.06;97997.16;6142352;28;20233;-91
2023/04/05 11:13:53;;;;;;;4.10;2.47;;;;;;;4.70;37.93;98111.47;6115675;28;20288;-89
2023/04/05 11:16:57;;;;;;;2.67;1.97;;;;;;;3.92;37.18;97985.97;6128010;28;20606;-89
2023/04/05 11:20:04;;;;;;;3.70;2.17;;;;;;;4.41;37.41;98120.41;6130052;28;20246;-89
2023/04/05 11:23:06;;;;;;;3.67;2.60;;;;;;;3.71;39.45;98005.28;6131346;28;20235;-89
2023/04/05 11:26:08;;;;;;;2.43;2.00;;;;;;;4.09;38.84;98054.03;6130130;28;20621;-89
2023/04/05 11:29:10;;;;;;;3.60;2.50;;;;;;;4.42;38.30;98040.25;6115000;28;20648;-89
2023/04/05 11:32:13;;;;;;;4.43;2.13;;;;;;;4.20;37.16;98004.44;6114175;28;20325;-90
2023/04/05 11:35:22;;;;;;;3.70;2.00;;;;;;;3.94;37.06;97999.75;6131494;28;20841;-90
2023/04/05 11:38:24;;;;;;;3.97;2.70;;;;;;;3.69;37.34;98002.00;6114610;28;20235;-90
2023/04/05 11:41:32;;;;;;;4.43;2.30;;;;;;;4.35;36.93;98082.41;6114974;28;20317;-89
2023/04/05 11:44:52;;;;;;;5.63;2.23;;;;;;;4.46;38.16;97999.28;6130442;28;20559;-89
2023/04/05 11:47:54;;;;;;;4.27;2.53;;;;;;;4.27;36.20;97919.06;6129991;28;20227;-90
2023/04/05 11:50:57;;;;;;;4.67;1.97;;;;;;;4.95;36.05;98037.09;6145466;28;20227;-89
2023/04/05 11:53:59;;;;;;;3.67;2.07;;;;;;;4.96;35.41;98080.94;6113322;28;20239;-88
2023/04/05 11:57:02;;;;;;;4.47;2.60;;;;;;;4.46;36.31;98032.78;6129682;28;20266;-91
2023/04/05 12:00:06;;;;;;;4.10;2.17;;;;;;;4.74;37.70;98086.34;6130384;28;20226;-89
2023/04/05 12:03:14;;;;;;;4.17;2.37;;;;;;;4.98;35.37;98087.69;6131456;28;20234;-89
2023/04/05 12:06:20;;;;;;;5.73;2.30;;;;;;;2.96;35.46;97777.63;6125732;28;20298;-88
2023/04/05 12:09:22;;;;;;;4.57;2.57;;;;;;;4.81;34.11;98013.25;6112270;28;20226;-89
2023/04/05 12:12:24;;;;;;;3.73;2.07;;;;;;;3.47;35.03;97798.41;6123082;28;20234;-90
2023/04/05 12:15:26;;;;;;;2.80;2.00;;;;;;;5.04;34.90;98057.84;6134401;28;20805;-90
2023/04/05 12:18:36;;;;;;;4.80;2.13;;;;;;;4.69;35.37;97977.09;6133277;28;20361;-90
2023/04/05 12:21:38;;;;;;;3.43;2.20;;;;;;;4.48;34.81;97991.19;6118605;28;21008;-88
2023/04/05 12:24:40;;;;;;;5.10;2.30;;;;;;;4.30;36.89;97979.34;6125835;28;20281;-89
2023/04/05 12:27:43;;;;;;;2.43;2.00;;;;;;;4.92;35.71;98056.75;6131187;28;20257;-89
2023/04/05 12:30:56;;;;;;;5.67;1.83;;;;;;;4.20;36.98;97917.41;6128130;28;20365;-89
2023/04/05 12:33:58;;;;;;;3.63;2.07;;;;;;;4.43;35.79;97941.66;6116182;28;20265;-89
2023/04/05 12:37:02;;;;;;;3.20;2.00;;;;;;;5.15;35.29;98048.53;6119368;28;20328;-89
2023/04/05 12:40:04;;;;;;;3.93;2.27;;;;;;;4.97;34.61;98016.56;6120750;28;20239;-89
2023/04/05 12:43:08;;;;;;;3.83;2.03;;;;;;;4.52;34.35;97951.03;6131725;28;20610;-90
2023/04/05 12:46:15;;;;;;;5.87;2.50;;;;;;;4.76;35.05;97988.47;6118000;28;20234;-89
2023/04/05 12:49:18;;;;;;;5.30;2.10;;;;;;;5.05;34.45;98038.34;6137685;28;20241;-90
2023/04/05 12:52:20;;;;;;;4.90;2.20;;;;;;;4.60;36.14;97945.59;6135503;28;20636;-89
2023/04/05 12:55:23;;;;;;;3.97;2.10;;;;;;;4.97;35.78;98022.66;6136615;28;20261;-89
2023/04/05 12:58:35;;;;;;;3.23;2.03;;;;;;;4.32;35.78;97981.75;6119864;28;20237;-89
2023/04/05 13:01:37;;;;;;;3.00;2.17;;;;;;;4.70;35.85;98037.59;6119276;28;20405;-90
2023/04/05 13:04:40;;;;;;;7.20;2.20;;;;;;;4.48;34.52;97984.06;6134840;28;20241;-89
2023/04/05 13:07:42;;;;;;;3.60;2.20;;;;;;;4.56;37.44;97954.91;6117738;28;20235;-89
2023/04/05 13:10:45;;;;;;;3.77;2.03;;;;;;;5.34;34.72;98010.81;6101985;28;20240;-89
2023/04/05 13:13:47;;;;;;;3.13;2.03;;;;;;;4.97;33.91;97958.50;6117806;28;20602;-88
2023/04/05 13:16:49;;;;;;;4.50;1.97;;;;;;;4.73;33.59;97925.53;6129914;28;20238;-90
2023/04/05 13:19:51;;;;;;;3.77;2.10;;;;;;;4.81;33.54;97938.56;6131769;28;20649;-90
2023/04/05 13:22:54;;;;;;;3.37;2.30;;;;;;;4.63;33.59;97944.38;6097045;28;20235;-89
2023/04/05 13:25:56;;;;;;;3.80;2.13;;;;;;;4.80;34.86;97958.84;6155856;28;20294;-89
2023/04/05 13:28:58;;;;;;;3.30;2.10;;;;;;;5.17;34.14;98028.00;6165309;28;20221;-89
2023/04/05 13:32:00;;;;;;;3.50;2.07;;;;;;;4.70;33.70;97958.41;6140771;28;20286;-89
2023/04/05 13:35:02;;;;;;;4.13;2.33;;;;;;;5.24;34.27;98039.44;6119914;28;20620;-89
2023/04/05 13:38:04;;;;;;;5.13;2.10;;;;;;;3.48;33.75;97776.34;6107957;28;20230;-89
2023/04/05 13:41:06;;;;;;;2.80;2.00;;;;;;;4.55;33.52;97952.47;6118644;28;20722;-89
2023/04/05 13:44:09;;;;;;;4.43;2.20;;;;;;;4.52;34.46;97987.97;6125795;28;20324;-90
2023/04/05 13:47:13;;;;;;;4.93;2.57;;;;;;;4.21;34.87;97932.22;6115722;28;20389;-88
2023/04/05 13:50:15;;;;;;;2.57;2.00;;;;;;;4.17;34.77;97929.16;6115612;28;20261;-89
2023/04/05 13:53:17;;;;;;;4.80;2.53;;;;;;;3.62;36.13;97817.56;6116089;28;20321;-89
2023/04/05 13:56:20;;;;;;;2.87;2.07;;;;;;;4.10;34.59;97886.13;6116705;28;20245;-89
2023/04/05 13:59:22;;;;;;;1.73;1.60;;;;;;;3.54;35.29;97784.25;6129004;28;20772;-89
2023/04/05 14:02:25;;;;;;;3.97;2.30;;;;;;;4.85;35.94;97984.66;6147538;28;20236;-90
2023/04/05 14:05:28;;;;;;;5.17;2.43;;;;;;;4.34;35.24;97935.75;6130741;28;20242;-89
2023/04/05 14:08:30;;;;;;;3.07;2.07;;;;;;;4.27;36.55;97942.78;6115674;28;20329;-90
2023/04/05 14:11:32;;;;;;;3.50;2.10;;;;;;;4.11;35.93;97907.00;6116245;28;20743;-90
2023/04/05 14:14:34;;;;;;;6.43;2.00;;;;;;;4.62;35.54;97966.50;6131900;28;20252;-89
2023/04/05 14:17:36;;;;;;;3.23;2.47;;;;;;;4.21;35.41;97930.41;6115338;28;20382;-89
2023/04/05 14:20:38;;;;;;;3.93;2.40;;;;;;;4.22;35.43;97915.38;6128774;28;20307;-89
2023/04/05 14:23:40;;;;;;;3.00;1.93;;;;;;;4.84;36.99;98012.06;6115653;28;20321;-89
2023/04/05 14:26:44;;;;;;;4.17;2.33;;;;;;;3.01;35.42;97715.53;6114169;28;20583;-90
2023/04/05 14:29:46;;;;;;;3.47;2.30;;;;;;;4.29;36.91;97895.16;6115676;28;20234;-89
2023/04/05 14:32:49;;;;;;;4.87;2.43;;;;;;;4.40;35.73;97873.47;6110871;28;20230;-89
2023/04/05 14:35:51;;;;;;;3.40;2.00;;;;;;;3.97;35.20;97815.69;6130820;28;20237;-89